sensor_id;sensor_type;location;lat;lon;timestamp;pressure;altitude;pressure_sealevel;temperature;humidity
41062;BME280;26812;42.662;23.352;2023-12-20T00:01:46;95272.13;;;1.32;81.29
41062;BME280;26812;42.662;23.352;2023-12-20T00:04:12;95274.00;;;1.10;79.46
41062;BME280;26812;42.662;23.352;2023-12-20T00:06:37;95258.38;;;0.91;80.08
41062;BME280;26812;42.662;23.352;2023-12-20T00:09:03;95266.63;;;0.68;81.44
41062;BME280;26812;42.662;23.352;2023-12-20T00:11:28;95239.84;;;0.70;82.15
41062;BME280;26812;42.662;23.352;2023-12-20T00:13:55;95237.16;;;0.91;81.94
41062;BME280;26812;42.662;23.352;2023-12-20T00:16:20;95241.59;;;1.08;80.54
41062;BME280;26812;42.662;23.352;2023-12-20T00:18:46;95259.59;;;1.28;79.18
41062;BME280;26812;42.662;23.352;2023-12-20T00:21:11;95249.03;;;0.84;79.78
41062;BME280;26812;42.662;23.352;2023-12-20T00:23:36;95249.91;;;0.68;81.71
41062;BME280;26812;42.662;23.352;2023-12-20T00:26:03;95240.75;;;0.58;82.12
41062;BME280;26812;42.662;23.352;2023-12-20T00:28:28;95251.81;;;0.94;82.41
41062;BME280;26812;42.662;23.352;2023-12-20T00:30:54;95247.25;;;0.68;82.59
41062;BME280;26812;42.662;23.352;2023-12-20T00:33:19;95239.75;;;1.08;82.11
41062;BME280;26812;42.662;23.352;2023-12-20T00:35:45;95239.34;;;1.21;79.29
41062;BME280;26812;42.662;23.352;2023-12-20T00:38:10;95201.53;;;0.82;79.33
41062;BME280;26812;42.662;23.352;2023-12-20T00:40:36;95185.22;;;0.47;80.74
41062;BME280;26812;42.662;23.352;2023-12-20T00:43:02;95200.91;;;0.53;81.87
41062;BME280;26812;42.662;23.352;2023-12-20T00:45:28;95229.69;;;1.10;80.98
41062;BME280;26812;42.662;23.352;2023-12-20T00:47:53;95225.75;;;0.91;79.93
41062;BME280;26812;42.662;23.352;2023-12-20T00:50:18;95218.22;;;1.05;80.37
41062;BME280;26812;42.662;23.352;2023-12-20T00:52:44;95213.38;;;1.23;79.66
41062;BME280;26812;42.662;23.352;2023-12-20T00:55:09;95215.41;;;1.16;78.63
41062;BME280;26812;42.662;23.352;2023-12-20T00:57:35;95219.53;;;0.80;79.97
41062;BME280;26812;42.662;23.352;2023-12-20T01:00:00;95199.22;;;0.64;80.96
41062;BME280;26812;42.662;23.352;2023-12-20T01:02:26;95214.06;;;0.43;81.65
41062;BME280;26812;42.662;23.352;2023-12-20T01:04:51;95205.47;;;0.58;82.48
41062;BME280;26812;42.662;23.352;2023-12-20T01:07:17;95169.41;;;0.57;82.08
41062;BME280;26812;42.662;23.352;2023-12-20T01:09:42;95154.19;;;0.47;81.61
41062;BME280;26812;42.662;23.352;2023-12-20T01:12:08;95143.84;;;0.46;81.76
41062;BME280;26812;42.662;23.352;2023-12-20T01:14:34;95188.25;;;0.82;81.93
41062;BME280;26812;42.662;23.352;2023-12-20T01:16:59;95177.19;;;0.42;81.99
41062;BME280;26812;42.662;23.352;2023-12-20T01:19:25;95189.41;;;0.43;82.65
41062;BME280;26812;42.662;23.352;2023-12-20T01:21:52;95171.94;;;0.47;82.69
41062;BME280;26812;42.662;23.352;2023-12-20T01:24:17;95189.00;;;1.00;81.75
41062;BME280;26812;42.662;23.352;2023-12-20T01:26:43;95152.28;;;0.91;79.95
41062;BME280;26812;42.662;23.352;2023-12-20T01:29:08;95166.03;;;0.88;79.37
41062;BME280;26812;42.662;23.352;2023-12-20T01:31:34;95171.56;;;1.09;78.93
41062;BME280;26812;42.662;23.352;2023-12-20T01:33:59;95156.09;;;1.01;78.23
41062;BME280;26812;42.662;23.352;2023-12-20T01:36:24;95160.78;;;0.67;78.87
41062;BME280;26812;42.662;23.352;2023-12-20T01:38:50;95162.75;;;0.76;80.50
41062;BME280;26812;42.662;23.352;2023-12-20T01:41:15;95151.22;;;0.66;79.42
41062;BME280;26812;42.662;23.352;2023-12-20T01:43:41;95149.31;;;0.61;80.04
41062;BME280;26812;42.662;23.352;2023-12-20T01:46:07;95118.13;;;0.46;79.70
41062;BME280;26812;42.662;23.352;2023-12-20T01:48:32;95143.41;;;0.54;81.09
41062;BME280;26812;42.662;23.352;2023-12-20T01:50:59;95088.28;;;0.07;81.15
41062;BME280;26812;42.662;23.352;2023-12-20T01:53:27;95109.81;;;0.38;82.00
41062;BME280;26812;42.662;23.352;2023-12-20T01:55:54;95104.28;;;0.39;81.01
41062;BME280;26812;42.662;23.352;2023-12-20T01:58:22;95128.34;;;0.59;81.33
41062;BME280;26812;42.662;23.352;2023-12-20T02:00:48;95117.63;;;0.49;81.36
41062;BME280;26812;42.662;23.352;2023-12-20T02:03:14;95102.63;;;0.60;79.60
41062;BME280;26812;42.662;23.352;2023-12-20T02:05:40;95124.81;;;0.76;79.75
41062;BME280;26812;42.662;23.352;2023-12-20T02:08:06;95109.94;;;0.48;80.03
41062;BME280;26812;42.662;23.352;2023-12-20T02:10:32;95116.50;;;0.67;80.21
41062;BME280;26812;42.662;23.352;2023-12-20T02:12:57;95111.44;;;0.39;80.29
41062;BME280;26812;42.662;23.352;2023-12-20T02:15:23;95107.72;;;0.61;80.71
41062;BME280;26812;42.662;23.352;2023-12-20T02:17:49;95102.97;;;0.42;80.93
41062;BME280;26812;42.662;23.352;2023-12-20T02:20:14;95113.34;;;0.43;81.11
41062;BME280;26812;42.662;23.352;2023-12-20T02:22:39;95108.28;;;0.42;81.34
41062;BME280;26812;42.662;23.352;2023-12-20T02:25:05;95089.03;;;0.51;80.99
41062;BME280;26812;42.662;23.352;2023-12-20T02:27:31;95099.75;;;0.61;80.33
41062;BME280;26812;42.662;23.352;2023-12-20T02:29:56;95099.81;;;0.67;78.21
41062;BME280;26812;42.662;23.352;2023-12-20T02:32:23;95103.94;;;0.57;78.86
41062;BME280;26812;42.662;23.352;2023-12-20T02:34:51;95082.38;;;0.49;79.78
41062;BME280;26812;42.662;23.352;2023-12-20T02:37:17;95072.78;;;-0.01;80.24
41062;BME280;26812;42.662;23.352;2023-12-20T02:39:42;95092.88;;;0.17;80.86
41062;BME280;26812;42.662;23.352;2023-12-20T02:42:08;95076.06;;;0.06;80.35
41062;BME280;26812;42.662;23.352;2023-12-20T02:44:33;95087.81;;;0.15;80.23
41062;BME280;26812;42.662;23.352;2023-12-20T02:46:59;95071.91;;;0.37;79.77
41062;BME280;26812;42.662;23.352;2023-12-20T02:49:24;95059.19;;;0.12;79.49
41062;BME280;26812;42.662;23.352;2023-12-20T02:51:50;95091.63;;;0.24;79.10
41062;BME280;26812;42.662;23.352;2023-12-20T02:54:15;95058.28;;;0.02;79.11
41062;BME280;26812;42.662;23.352;2023-12-20T02:56:41;95087.81;;;0.37;78.48
41062;BME280;26812;42.662;23.352;2023-12-20T02:59:06;95050.06;;;0.03;77.98
41062;BME280;26812;42.662;23.352;2023-12-20T03:01:33;95078.81;;;0.38;78.06
41062;BME280;26812;42.662;23.352;2023-12-20T03:03:59;95073.88;;;0.25;77.57
41062;BME280;26812;42.662;23.352;2023-12-20T03:06:25;95073.59;;;-0.01;78.58
41062;BME280;26812;42.662;23.352;2023-12-20T03:08:50;95077.06;;;0.00;79.68
41062;BME280;26812;42.662;23.352;2023-12-20T03:11:16;95081.09;;;0.29;78.72
41062;BME280;26812;42.662;23.352;2023-12-20T03:13:41;95060.94;;;0.28;76.98
41062;BME280;26812;42.662;23.352;2023-12-20T03:16:10;95071.69;;;-0.05;78.61
41062;BME280;26812;42.662;23.352;2023-12-20T03:18:36;95034.59;;;-0.05;78.62
41062;BME280;26812;42.662;23.352;2023-12-20T03:21:01;95078.84;;;0.16;77.78
41062;BME280;26812;42.662;23.352;2023-12-20T03:23:27;95080.88;;;0.09;78.05
41062;BME280;26812;42.662;23.352;2023-12-20T03:25:52;95080.94;;;0.14;78.27
41062;BME280;26812;42.662;23.352;2023-12-20T03:28:18;95059.19;;;0.12;78.00
41062;BME280;26812;42.662;23.352;2023-12-20T03:30:44;95071.50;;;0.23;77.52
41062;BME280;26812;42.662;23.352;2023-12-20T03:33:10;95067.84;;;0.29;77.23
41062;BME280;26812;42.662;23.352;2023-12-20T03:35:35;95057.63;;;0.16;77.28
41062;BME280;26812;42.662;23.352;2023-12-20T03:38:01;95054.13;;;-0.11;77.45
41062;BME280;26812;42.662;23.352;2023-12-20T03:40:27;95076.63;;;0.08;78.23
41062;BME280;26812;42.662;23.352;2023-12-20T03:42:52;95048.16;;;-0.23;77.48
41062;BME280;26812;42.662;23.352;2023-12-20T03:45:17;95059.16;;;-0.32;79.29
41062;BME280;26812;42.662;23.352;2023-12-20T03:47:43;95056.97;;;0.04;77.96
41062;BME280;26812;42.662;23.352;2023-12-20T03:50:08;95066.28;;;-0.32;78.32
41062;BME280;26812;42.662;23.352;2023-12-20T03:52:33;95057.88;;;-0.07;78.24
41062;BME280;26812;42.662;23.352;2023-12-20T03:54:59;95037.97;;;-0.53;79.34
41062;BME280;26812;42.662;23.352;2023-12-20T03:57:24;95043.75;;;-0.35;80.80
41062;BME280;26812;42.662;23.352;2023-12-20T03:59:50;95021.69;;;-0.23;78.85
41062;BME280;26812;42.662;23.352;2023-12-20T04:02:15;95051.47;;;-0.11;79.29
41062;BME280;26812;42.662;23.352;2023-12-20T04:04:43;95024.38;;;-0.40;79.08
41062;BME280;26812;42.662;23.352;2023-12-20T04:07:08;95017.56;;;-0.14;78.49
41062;BME280;26812;42.662;23.352;2023-12-20T04:09:34;95033.94;;;-0.17;78.81
41062;BME280;26812;42.662;23.352;2023-12-20T04:11:59;95044.91;;;-0.30;79.71
41062;BME280;26812;42.662;23.352;2023-12-20T04:14:24;95039.22;;;-0.39;80.12
41062;BME280;26812;42.662;23.352;2023-12-20T04:16:50;95030.84;;;-0.31;80.51
41062;BME280;26812;42.662;23.352;2023-12-20T04:19:16;95026.38;;;-0.30;79.86
41062;BME280;26812;42.662;23.352;2023-12-20T04:21:41;95019.50;;;-0.48;79.98
41062;BME280;26812;42.662;23.352;2023-12-20T04:24:06;95018.09;;;-0.56;80.50
41062;BME280;26812;42.662;23.352;2023-12-20T04:26:32;95021.47;;;-0.60;80.90
41062;BME280;26812;42.662;23.352;2023-12-20T04:28:57;95023.34;;;0.05;79.49
41062;BME280;26812;42.662;23.352;2023-12-20T04:31:23;94985.47;;;-0.18;78.15
41062;BME280;26812;42.662;23.352;2023-12-20T04:33:48;94964.91;;;-0.54;79.39
41062;BME280;26812;42.662;23.352;2023-12-20T04:36:14;95009.91;;;-0.33;79.97
41062;BME280;26812;42.662;23.352;2023-12-20T04:38:39;95000.13;;;-0.54;79.70
41062;BME280;26812;42.662;23.352;2023-12-20T04:41:05;95015.78;;;-0.30;80.54
41062;BME280;26812;42.662;23.352;2023-12-20T04:43:30;95007.16;;;0.01;79.79
41062;BME280;26812;42.662;23.352;2023-12-20T04:45:56;95013.28;;;0.07;78.64
41062;BME280;26812;42.662;23.352;2023-12-20T04:48:21;94970.56;;;-0.46;77.73
41062;BME280;26812;42.662;23.352;2023-12-20T04:50:47;95013.84;;;-0.13;78.38
41062;BME280;26812;42.662;23.352;2023-12-20T04:53:12;94987.41;;;-0.08;77.40
41062;BME280;26812;42.662;23.352;2023-12-20T04:55:37;94989.72;;;-0.17;76.73
41062;BME280;26812;42.662;23.352;2023-12-20T04:58:04;95007.56;;;-0.51;77.65
41062;BME280;26812;42.662;23.352;2023-12-20T05:00:29;94993.47;;;-0.35;77.80
41062;BME280;26812;42.662;23.352;2023-12-20T05:02:55;94996.00;;;-0.23;76.91
41062;BME280;26812;42.662;23.352;2023-12-20T05:05:21;94980.16;;;-0.40;75.70
41062;BME280;26812;42.662;23.352;2023-12-20T05:07:46;94985.03;;;-0.53;76.02
41062;BME280;26812;42.662;23.352;2023-12-20T05:10:11;94987.88;;;-0.38;75.99
41062;BME280;26812;42.662;23.352;2023-12-20T05:12:37;94986.59;;;-0.57;75.55
41062;BME280;26812;42.662;23.352;2023-12-20T05:15:04;95003.34;;;-0.69;76.39
41062;BME280;26812;42.662;23.352;2023-12-20T05:17:30;94972.97;;;-1.05;77.14
41062;BME280;26812;42.662;23.352;2023-12-20T05:19:56;94988.09;;;-1.00;77.76
41062;BME280;26812;42.662;23.352;2023-12-20T05:22:21;94993.56;;;-1.07;78.17
41062;BME280;26812;42.662;23.352;2023-12-20T05:24:46;94992.84;;;-1.36;79.30
41062;BME280;26812;42.662;23.352;2023-12-20T05:27:12;94990.69;;;-1.22;79.92
41062;BME280;26812;42.662;23.352;2023-12-20T05:29:37;94981.88;;;-1.11;79.88
41062;BME280;26812;42.662;23.352;2023-12-20T05:32:03;94984.75;;;-1.12;80.05
41062;BME280;26812;42.662;23.352;2023-12-20T05:34:30;94976.09;;;-1.25;79.96
41062;BME280;26812;42.662;23.352;2023-12-20T05:36:56;94984.81;;;-1.24;80.92
41062;BME280;26812;42.662;23.352;2023-12-20T05:39:21;94977.47;;;-1.22;80.44
41062;BME280;26812;42.662;23.352;2023-12-20T05:41:47;94950.31;;;-1.68;81.64
41062;BME280;26812;42.662;23.352;2023-12-20T05:44:13;94980.44;;;-1.35;82.65
41062;BME280;26812;42.662;23.352;2023-12-20T05:46:38;94977.69;;;-1.07;82.07
41062;BME280;26812;42.662;23.352;2023-12-20T05:49:05;94925.34;;;-1.43;81.99
41062;BME280;26812;42.662;23.352;2023-12-20T05:51:30;94967.78;;;-1.50;82.57
41062;BME280;26812;42.662;23.352;2023-12-20T05:53:56;94903.28;;;-1.32;82.45
41062;BME280;26812;42.662;23.352;2023-12-20T05:56:22;94960.22;;;-1.08;82.42
41062;BME280;26812;42.662;23.352;2023-12-20T05:58:48;94964.22;;;-0.88;81.21
41062;BME280;26812;42.662;23.352;2023-12-20T06:01:16;94959.34;;;-1.30;81.84
41062;BME280;26812;42.662;23.352;2023-12-20T06:03:44;94957.03;;;-1.10;82.02
41062;BME280;26812;42.662;23.352;2023-12-20T06:06:11;94929.16;;;-1.17;82.54
41062;BME280;26812;42.662;23.352;2023-12-20T06:08:38;94959.72;;;-0.88;82.46
41062;BME280;26812;42.662;23.352;2023-12-20T06:11:03;94958.00;;;-0.77;81.34
41062;BME280;26812;42.662;23.352;2023-12-20T06:13:30;94958.94;;;-1.05;82.24
41062;BME280;26812;42.662;23.352;2023-12-20T06:15:56;94960.13;;;-0.96;82.84
41062;BME280;26812;42.662;23.352;2023-12-20T06:18:22;94931.31;;;-1.14;83.07
41062;BME280;26812;42.662;23.352;2023-12-20T06:20:47;94967.34;;;-0.70;82.94
41062;BME280;26812;42.662;23.352;2023-12-20T06:23:13;94941.28;;;-1.00;82.21
41062;BME280;26812;42.662;23.352;2023-12-20T06:25:38;94965.44;;;-0.74;82.41
41062;BME280;26812;42.662;23.352;2023-12-20T06:28:04;94970.78;;;-0.91;82.56
41062;BME280;26812;42.662;23.352;2023-12-20T06:30:29;94952.34;;;-0.86;82.95
41062;BME280;26812;42.662;23.352;2023-12-20T06:32:57;94933.34;;;-1.00;81.54
41062;BME280;26812;42.662;23.352;2023-12-20T06:35:24;94946.34;;;-0.59;82.14
41062;BME280;26812;42.662;23.352;2023-12-20T06:37:49;94957.66;;;-0.42;81.36
41062;BME280;26812;42.662;23.352;2023-12-20T06:40:15;94954.34;;;-0.54;79.79
41062;BME280;26812;42.662;23.352;2023-12-20T06:42:41;94959.41;;;-0.70;80.97
41062;BME280;26812;42.662;23.352;2023-12-20T06:45:07;94939.59;;;-0.67;81.17
41062;BME280;26812;42.662;23.352;2023-12-20T06:47:32;94923.66;;;-0.72;81.41
41062;BME280;26812;42.662;23.352;2023-12-20T06:49:58;94947.19;;;-0.54;81.96
41062;BME280;26812;42.662;23.352;2023-12-20T06:52:23;94903.25;;;-0.55;81.74
41062;BME280;26812;42.662;23.352;2023-12-20T06:54:48;94949.78;;;-0.10;81.14
41062;BME280;26812;42.662;23.352;2023-12-20T06:57:15;94934.81;;;-0.26;81.10
41062;BME280;26812;42.662;23.352;2023-12-20T06:59:40;94946.34;;;-0.11;80.97
41062;BME280;26812;42.662;23.352;2023-12-20T07:02:06;94940.50;;;0.14;80.92
41062;BME280;26812;42.662;23.352;2023-12-20T07:04:33;94939.97;;;0.44;80.58
41062;BME280;26812;42.662;23.352;2023-12-20T07:06:58;94926.41;;;0.73;78.77
41062;BME280;26812;42.662;23.352;2023-12-20T07:09:26;94914.16;;;1.04;77.23
41062;BME280;26812;42.662;23.352;2023-12-20T07:11:52;94936.19;;;1.09;74.89
41062;BME280;26812;42.662;23.352;2023-12-20T07:14:18;94932.81;;;0.77;76.33
41062;BME280;26812;42.662;23.352;2023-12-20T07:16:43;94932.44;;;1.00;75.52
41062;BME280;26812;42.662;23.352;2023-12-20T07:19:08;94921.72;;;0.85;76.57
41062;BME280;26812;42.662;23.352;2023-12-20T07:21:34;94932.66;;;0.93;75.70
41062;BME280;26812;42.662;23.352;2023-12-20T07:24:01;94928.69;;;0.96;76.12
41062;BME280;26812;42.662;23.352;2023-12-20T07:26:26;94866.09;;;0.95;76.15
41062;BME280;26812;42.662;23.352;2023-12-20T07:28:53;94922.78;;;1.31;75.27
41062;BME280;26812;42.662;23.352;2023-12-20T07:31:18;94915.47;;;1.53;74.37
41062;BME280;26812;42.662;23.352;2023-12-20T07:33:44;94914.53;;;1.22;74.38
41062;BME280;26812;42.662;23.352;2023-12-20T07:36:12;94909.13;;;1.65;74.67
41062;BME280;26812;42.662;23.352;2023-12-20T07:38:37;94920.63;;;2.01;71.79
41062;BME280;26812;42.662;23.352;2023-12-20T07:41:03;94912.81;;;1.59;72.68
41062;BME280;26812;42.662;23.352;2023-12-20T07:43:28;94914.44;;;1.65;73.25
41062;BME280;26812;42.662;23.352;2023-12-20T07:45:54;94923.03;;;1.92;73.04
41062;BME280;26812;42.662;23.352;2023-12-20T07:48:19;94920.91;;;2.09;72.69
41062;BME280;26812;42.662;23.352;2023-12-20T07:50:44;94909.25;;;2.31;70.99
41062;BME280;26812;42.662;23.352;2023-12-20T07:53:11;94913.53;;;2.47;70.53
41062;BME280;26812;42.662;23.352;2023-12-20T07:55:36;94898.38;;;2.53;70.10
41062;BME280;26812;42.662;23.352;2023-12-20T07:58:02;94910.34;;;2.45;71.23
41062;BME280;26812;42.662;23.352;2023-12-20T08:00:27;94888.00;;;2.61;70.12
41062;BME280;26812;42.662;23.352;2023-12-20T08:02:53;94879.72;;;2.73;70.08
41062;BME280;26812;42.662;23.352;2023-12-20T08:05:18;94897.00;;;2.91;69.06
41062;BME280;26812;42.662;23.352;2023-12-20T08:07:44;94895.13;;;2.96;68.83
41062;BME280;26812;42.662;23.352;2023-12-20T08:10:09;94911.09;;;3.01;69.65
41062;BME280;26812;42.662;23.352;2023-12-20T08:12:35;94904.16;;;3.05;70.23
41062;BME280;26812;42.662;23.352;2023-12-20T08:15:01;94888.63;;;3.43;68.04
41062;BME280;26812;42.662;23.352;2023-12-20T08:17:27;94888.81;;;3.57;68.95
41062;BME280;26812;42.662;23.352;2023-12-20T08:19:52;94886.50;;;3.99;66.45
41062;BME280;26812;42.662;23.352;2023-12-20T08:22:17;94887.16;;;3.66;67.12
41062;BME280;26812;42.662;23.352;2023-12-20T08:24:43;94884.44;;;3.81;67.04
41062;BME280;26812;42.662;23.352;2023-12-20T08:27:08;94892.97;;;4.27;65.51
41062;BME280;26812;42.662;23.352;2023-12-20T08:29:35;94871.31;;;4.34;65.41
41062;BME280;26812;42.662;23.352;2023-12-20T08:32:00;94885.19;;;4.99;63.71
41062;BME280;26812;42.662;23.352;2023-12-20T08:34:25;94876.50;;;4.54;62.75
41062;BME280;26812;42.662;23.352;2023-12-20T08:36:51;94860.75;;;4.53;63.69
41062;BME280;26812;42.662;23.352;2023-12-20T08:39:17;94848.31;;;4.09;64.54
41062;BME280;26812;42.662;23.352;2023-12-20T08:41:42;94860.16;;;4.27;64.96
41062;BME280;26812;42.662;23.352;2023-12-20T08:44:08;94867.59;;;3.91;66.41
41062;BME280;26812;42.662;23.352;2023-12-20T08:46:34;94837.72;;;3.99;65.12
41062;BME280;26812;42.662;23.352;2023-12-20T08:49:00;94863.25;;;3.56;67.35
41062;BME280;26812;42.662;23.352;2023-12-20T08:51:26;94795.09;;;3.50;66.79
41062;BME280;26812;42.662;23.352;2023-12-20T08:53:51;94853.66;;;3.55;67.33
41062;BME280;26812;42.662;23.352;2023-12-20T08:56:17;94848.38;;;3.50;68.24
41062;BME280;26812;42.662;23.352;2023-12-20T08:58:44;94851.84;;;3.50;68.17
41062;BME280;26812;42.662;23.352;2023-12-20T09:01:09;94842.00;;;3.46;68.57
41062;BME280;26812;42.662;23.352;2023-12-20T09:03:35;94841.75;;;3.42;68.97
41062;BME280;26812;42.662;23.352;2023-12-20T09:06:01;94804.50;;;3.37;69.08
41062;BME280;26812;42.662;23.352;2023-12-20T09:08:26;94820.84;;;3.10;70.36
41062;BME280;26812;42.662;23.352;2023-12-20T09:10:51;94805.72;;;2.95;70.09
41062;BME280;26812;42.662;23.352;2023-12-20T09:13:17;94769.56;;;2.84;70.42
41062;BME280;26812;42.662;23.352;2023-12-20T09:15:42;94780.97;;;2.95;71.11
41062;BME280;26812;42.662;23.352;2023-12-20T09:18:08;94772.94;;;3.05;71.24
41062;BME280;26812;42.662;23.352;2023-12-20T09:20:34;94739.91;;;3.11;70.35
41062;BME280;26812;42.662;23.352;2023-12-20T09:22:59;94771.53;;;3.23;70.41
41062;BME280;26812;42.662;23.352;2023-12-20T09:25:25;94771.06;;;3.10;71.32
41062;BME280;26812;42.662;23.352;2023-12-20T09:27:52;94725.09;;;2.90;71.27
41062;BME280;26812;42.662;23.352;2023-12-20T09:30:18;94740.03;;;2.80;72.12
41062;BME280;26812;42.662;23.352;2023-12-20T09:32:43;94757.03;;;2.90;73.40
41062;BME280;26812;42.662;23.352;2023-12-20T09:35:09;94753.00;;;2.97;73.56
41062;BME280;26812;42.662;23.352;2023-12-20T09:37:34;94712.09;;;2.83;73.51
41062;BME280;26812;42.662;23.352;2023-12-20T09:40:00;94704.13;;;2.83;73.18
41062;BME280;26812;42.662;23.352;2023-12-20T09:42:43;94736.41;;;3.21;72.63
41062;BME280;26812;42.662;23.352;2023-12-20T09:45:13;94733.16;;;3.29;72.61
41062;BME280;26812;42.662;23.352;2023-12-20T09:47:40;94727.16;;;3.52;71.14
41062;BME280;26812;42.662;23.352;2023-12-20T09:50:06;94719.22;;;3.47;70.85
41062;BME280;26812;42.662;23.352;2023-12-20T09:52:33;94725.88;;;3.45;70.75
41062;BME280;26812;42.662;23.352;2023-12-20T09:55:00;94718.97;;;3.43;72.38
41062;BME280;26812;42.662;23.352;2023-12-20T09:57:27;94717.44;;;3.71;71.67
41062;BME280;26812;42.662;23.352;2023-12-20T09:59:52;94718.63;;;3.89;71.03
41062;BME280;26812;42.662;23.352;2023-12-20T10:02:19;94717.88;;;4.42;70.04
41062;BME280;26812;42.662;23.352;2023-12-20T10:04:48;94715.28;;;5.46;66.89
41062;BME280;26812;42.662;23.352;2023-12-20T10:07:14;94705.69;;;6.75;62.84
41062;BME280;26812;42.662;23.352;2023-12-20T10:09:40;94707.84;;;7.86;57.77
41062;BME280;26812;42.662;23.352;2023-12-20T10:12:07;94667.50;;;8.76;54.27
41062;BME280;26812;42.662;23.352;2023-12-20T10:14:32;94681.75;;;9.59;50.67
41062;BME280;26812;42.662;23.352;2023-12-20T10:17:05;94682.22;;;9.70;51.31
41062;BME280;26812;42.662;23.352;2023-12-20T10:19:31;94679.28;;;11.79;46.26
41062;BME280;26812;42.662;23.352;2023-12-20T10:22:00;94673.19;;;13.79;41.68
41062;BME280;26812;42.662;23.352;2023-12-20T10:24:28;94663.13;;;15.93;37.17
41062;BME280;26812;42.662;23.352;2023-12-20T10:27:04;94651.16;;;16.97;33.81
41062;BME280;26812;42.662;23.352;2023-12-20T10:29:34;94660.28;;;18.48;31.97
41062;BME280;26812;42.662;23.352;2023-12-20T10:31:59;94644.59;;;19.63;29.70
41062;BME280;26812;42.662;23.352;2023-12-20T10:34:25;94640.72;;;20.44;27.69
41062;BME280;26812;42.662;23.352;2023-12-20T10:36:51;94644.31;;;20.62;27.69
41062;BME280;26812;42.662;23.352;2023-12-20T10:39:17;94643.03;;;20.38;26.54
41062;BME280;26812;42.662;23.352;2023-12-20T10:41:44;94634.06;;;20.41;27.77
41062;BME280;26812;42.662;23.352;2023-12-20T10:44:10;94601.72;;;20.93;26.30
41062;BME280;26812;42.662;23.352;2023-12-20T10:46:36;94598.78;;;19.46;28.42
41062;BME280;26812;42.662;23.352;2023-12-20T10:49:04;94605.22;;;20.62;26.64
41062;BME280;26812;42.662;23.352;2023-12-20T10:51:31;94613.81;;;20.60;26.76
41062;BME280;26812;42.662;23.352;2023-12-20T10:54:05;94587.16;;;20.46;26.52
41062;BME280;26812;42.662;23.352;2023-12-20T10:56:32;94609.25;;;19.95;27.48
41062;BME280;26812;42.662;23.352;2023-12-20T10:59:02;94599.88;;;19.96;27.31
41062;BME280;26812;42.662;23.352;2023-12-20T11:01:28;94595.81;;;19.65;27.55
41062;BME280;26812;42.662;23.352;2023-12-20T11:03:55;94569.50;;;17.50;30.21
41062;BME280;26812;42.662;23.352;2023-12-20T11:06:45;94586.41;;;15.10;33.81
41062;BME280;26812;42.662;23.352;2023-12-20T11:09:19;94589.38;;;13.30;37.82
41062;BME280;26812;42.662;23.352;2023-12-20T11:14:50;94574.59;;;10.51;44.48
41062;BME280;26812;42.662;23.352;2023-12-20T11:17:16;94566.41;;;9.66;46.51
41062;BME280;26812;42.662;23.352;2023-12-20T11:22:29;94506.34;;;7.79;52.15
41062;BME280;26812;42.662;23.352;2023-12-20T11:24:59;94506.47;;;7.43;53.47
41062;BME280;26812;42.662;23.352;2023-12-20T11:27:27;94559.53;;;6.96;55.96
41062;BME280;26812;42.662;23.352;2023-12-20T11:29:54;94545.66;;;6.94;57.24
41062;BME280;26812;42.662;23.352;2023-12-20T11:35:17;94534.78;;;7.58;56.22
41062;BME280;26812;42.662;23.352;2023-12-20T11:37:42;94509.16;;;7.21;56.09
41062;BME280;26812;42.662;23.352;2023-12-20T11:40:14;94512.63;;;6.76;58.33
41062;BME280;26812;42.662;23.352;2023-12-20T11:42:41;94525.66;;;6.28;60.34
41062;BME280;26812;42.662;23.352;2023-12-20T11:45:15;94509.25;;;5.94;62.17
41062;BME280;26812;42.662;23.352;2023-12-20T11:47:43;94503.97;;;5.88;63.64
41062;BME280;26812;42.662;23.352;2023-12-20T11:50:09;94506.25;;;6.72;61.01
41062;BME280;26812;42.662;23.352;2023-12-20T11:52:34;94484.88;;;7.17;60.08
41062;BME280;26812;42.662;23.352;2023-12-20T11:55:00;94487.53;;;9.01;56.00
41062;BME280;26812;42.662;23.352;2023-12-20T11:57:25;94463.47;;;11.37;47.50
41062;BME280;26812;42.662;23.352;2023-12-20T11:59:51;94485.00;;;13.29;42.33
41062;BME280;26812;42.662;23.352;2023-12-20T12:02:16;94476.34;;;14.74;39.04
41062;BME280;26812;42.662;23.352;2023-12-20T12:04:42;94462.25;;;16.49;35.77
41062;BME280;26812;42.662;23.352;2023-12-20T12:07:07;94461.50;;;16.26;35.18
41062;BME280;26812;42.662;23.352;2023-12-20T12:09:33;94461.44;;;16.98;34.53
41062;BME280;26812;42.662;23.352;2023-12-20T12:11:59;94438.34;;;18.67;31.17
41062;BME280;26812;42.662;23.352;2023-12-20T12:14:25;94443.47;;;18.75;30.56
41062;BME280;26812;42.662;23.352;2023-12-20T12:16:50;94447.81;;;17.91;31.90
41062;BME280;26812;42.662;23.352;2023-12-20T12:19:25;94423.03;;;19.17;29.64
41062;BME280;26812;42.662;23.352;2023-12-20T12:21:51;94431.06;;;18.88;30.05
41062;BME280;26812;42.662;23.352;2023-12-20T12:24:20;94439.91;;;18.20;30.73
41062;BME280;26812;42.662;23.352;2023-12-20T12:26:57;94428.97;;;18.64;31.06
41062;BME280;26812;42.662;23.352;2023-12-20T12:29:23;94437.91;;;18.13;31.61
41062;BME280;26812;42.662;23.352;2023-12-20T12:31:50;94411.28;;;17.62;31.96
41062;BME280;26812;42.662;23.352;2023-12-20T12:34:16;94431.88;;;17.26;32.30
41062;BME280;26812;42.662;23.352;2023-12-20T12:36:43;94418.97;;;18.35;31.35
41062;BME280;26812;42.662;23.352;2023-12-20T12:39:08;94393.69;;;20.22;28.27
41062;BME280;26812;42.662;23.352;2023-12-20T12:41:34;94412.84;;;20.43;27.91
41062;BME280;26812;42.662;23.352;2023-12-20T12:44:00;94415.59;;;21.84;26.06
41062;BME280;26812;42.662;23.352;2023-12-20T12:46:25;94416.31;;;20.15;28.05
41062;BME280;26812;42.662;23.352;2023-12-20T12:48:51;94388.66;;;18.98;29.76
41062;BME280;26812;42.662;23.352;2023-12-20T12:51:16;94405.94;;;17.06;32.58
41062;BME280;26812;42.662;23.352;2023-12-20T12:53:42;94412.75;;;17.90;31.17
41062;BME280;26812;42.662;23.352;2023-12-20T12:56:07;94364.78;;;16.77;32.61
41062;BME280;26812;42.662;23.352;2023-12-20T12:58:41;94379.88;;;15.96;34.39